sensor_id;sensor_type;location;lat;lon;timestamp;temperature;humidity
6879;DHT22;3478;51.462;7.338;2023-12-22T00:04:06;5.50;1.00
6879;DHT22;3478;51.462;7.338;2023-12-22T00:09:09;5.40;99.90
6879;DHT22;3478;51.462;7.338;2023-12-22T00:14:11;5.40;1.00
6879;DHT22;3478;51.462;7.338;2023-12-22T00:19:13;5.40;99.90
6879;DHT22;3478;51.462;7.338;2023-12-22T00:24:16;5.40;1.00
6879;DHT22;3478;51.462;7.338;2023-12-22T00:29:18;5.30;1.00
6879;DHT22;3478;51.462;7.338;2023-12-22T00:34:21;5.30;99.90
6879;DHT22;3478;51.462;7.338;2023-12-22T00:39:25;5.20;99.90
6879;DHT22;3478;51.462;7.338;2023-12-22T00:44:27;5.30;99.90
6879;DHT22;3478;51.462;7.338;2023-12-22T00:49:30;5.30;99.90
6879;DHT22;3478;51.462;7.338;2023-12-22T00:54:33;5.40;71.60
6879;DHT22;3478;51.462;7.338;2023-12-22T00:59:35;5.40;1.00
6879;DHT22;3478;51.462;7.338;2023-12-22T01:04:36;5.30;1.00
6879;DHT22;3478;51.462;7.338;2023-12-22T01:09:40;5.30;93.30
6879;DHT22;3478;51.462;7.338;2023-12-22T01:14:41;5.30;1.00
6879;DHT22;3478;51.462;7.338;2023-12-22T01:19:45;5.40;92.70
6879;DHT22;3478;51.462;7.338;2023-12-22T01:24:48;5.40;99.90
6879;DHT22;3478;51.462;7.338;2023-12-22T01:29:50;5.50;99.90
6879;DHT22;3478;51.462;7.338;2023-12-22T01:34:52;5.50;99.90
6879;DHT22;3478;51.462;7.338;2023-12-22T01:39:55;5.60;1.00
6879;DHT22;3478;51.462;7.338;2023-12-22T01:44:57;5.70;99.90
6879;DHT22;3478;51.462;7.338;2023-12-22T01:49:59;5.70;1.00
6879;DHT22;3478;51.462;7.338;2023-12-22T01:55:03;5.80;1.00
6879;DHT22;3478;51.462;7.338;2023-12-22T02:00:06;5.80;1.00
6879;DHT22;3478;51.462;7.338;2023-12-22T02:05:08;5.80;99.90
6879;DHT22;3478;51.462;7.338;2023-12-22T02:10:13;5.70;99.90
6879;DHT22;3478;51.462;7.338;2023-12-22T02:15:15;5.50;1.00
6879;DHT22;3478;51.462;7.338;2023-12-22T02:20:17;5.30;99.90
6879;DHT22;3478;51.462;7.338;2023-12-22T02:25:20;5.30;99.90
6879;DHT22;3478;51.462;7.338;2023-12-22T02:30:26;5.20;99.90
6879;DHT22;3478;51.462;7.338;2023-12-22T02:35:29;5.20;1.00
6879;DHT22;3478;51.462;7.338;2023-12-22T02:40:33;5.20;1.00
6879;DHT22;3478;51.462;7.338;2023-12-22T02:45:36;5.20;99.90
6879;DHT22;3478;51.462;7.338;2023-12-22T02:50:37;5.20;99.90
6879;DHT22;3478;51.462;7.338;2023-12-22T02:55:41;5.20;99.90
6879;DHT22;3478;51.462;7.338;2023-12-22T03:00:42;5.20;99.90
6879;DHT22;3478;51.462;7.338;2023-12-22T03:05:44;5.20;99.90
6879;DHT22;3478;51.462;7.338;2023-12-22T03:10:47;5.20;99.90
6879;DHT22;3478;51.462;7.338;2023-12-22T03:15:49;5.20;99.90
6879;DHT22;3478;51.462;7.338;2023-12-22T03:20:51;5.20;99.90
6879;DHT22;3478;51.462;7.338;2023-12-22T03:25:54;5.30;99.90
6879;DHT22;3478;51.462;7.338;2023-12-22T03:30:56;5.30;1.00
6879;DHT22;3478;51.462;7.338;2023-12-22T03:35:57;5.40;99.90
6879;DHT22;3478;51.462;7.338;2023-12-22T03:41:01;5.40;1.00
6879;DHT22;3478;51.462;7.338;2023-12-22T03:46:03;5.50;1.00
6879;DHT22;3478;51.462;7.338;2023-12-22T03:51:04;5.50;99.90
6879;DHT22;3478;51.462;7.338;2023-12-22T03:56:08;5.50;1.00
6879;DHT22;3478;51.462;7.338;2023-12-22T04:01:14;5.40;93.30
6879;DHT22;3478;51.462;7.338;2023-12-22T04:06:15;5.30;1.00
6879;DHT22;3478;51.462;7.338;2023-12-22T04:11:19;5.30;1.00
6879;DHT22;3478;51.462;7.338;2023-12-22T04:16:20;5.20;99.90
6879;DHT22;3478;51.462;7.338;2023-12-22T04:21:22;5.20;1.00
6879;DHT22;3478;51.462;7.338;2023-12-22T04:26:25;5.10;99.90
6879;DHT22;3478;51.462;7.338;2023-12-22T04:31:27;4.30;1.00
6879;DHT22;3478;51.462;7.338;2023-12-22T04:36:29;4.20;99.90
6879;DHT22;3478;51.462;7.338;2023-12-22T04:41:32;4.20;99.90
6879;DHT22;3478;51.462;7.338;2023-12-22T04:46:34;4.30;99.90
6879;DHT22;3478;51.462;7.338;2023-12-22T04:51:36;4.50;6.40
6879;DHT22;3478;51.462;7.338;2023-12-22T04:56:39;4.40;99.90
6879;DHT22;3478;51.462;7.338;2023-12-22T05:01:41;4.40;99.90
6879;DHT22;3478;51.462;7.338;2023-12-22T05:06:43;4.50;99.90
6879;DHT22;3478;51.462;7.338;2023-12-22T05:11:47;4.50;99.90
6879;DHT22;3478;51.462;7.338;2023-12-22T05:16:49;4.50;99.90
6879;DHT22;3478;51.462;7.338;2023-12-22T05:21:51;4.50;99.90
6879;DHT22;3478;51.462;7.338;2023-12-22T05:26:57;4.50;99.90
6879;DHT22;3478;51.462;7.338;2023-12-22T05:31:59;4.50;99.90
6879;DHT22;3478;51.462;7.338;2023-12-22T05:37:01;4.50;99.90
6879;DHT22;3478;51.462;7.338;2023-12-22T05:42:04;4.60;99.90
6879;DHT22;3478;51.462;7.338;2023-12-22T05:47:08;4.60;99.90
6879;DHT22;3478;51.462;7.338;2023-12-22T05:52:12;4.60;99.90
6879;DHT22;3478;51.462;7.338;2023-12-22T05:57:15;4.60;99.90
6879;DHT22;3478;51.462;7.338;2023-12-22T06:02:17;4.70;99.90
6879;DHT22;3478;51.462;7.338;2023-12-22T06:07:19;4.80;99.90
6879;DHT22;3478;51.462;7.338;2023-12-22T06:12:22;4.80;99.90
6879;DHT22;3478;51.462;7.338;2023-12-22T06:17:24;4.80;99.90
6879;DHT22;3478;51.462;7.338;2023-12-22T06:22:26;4.80;99.90
6879;DHT22;3478;51.462;7.338;2023-12-22T06:27:29;4.90;99.90
6879;DHT22;3478;51.462;7.338;2023-12-22T06:32:31;4.90;99.90
6879;DHT22;3478;51.462;7.338;2023-12-22T06:37:33;4.90;99.90
6879;DHT22;3478;51.462;7.338;2023-12-22T06:42:36;4.90;99.90
6879;DHT22;3478;51.462;7.338;2023-12-22T06:47:39;4.90;99.90
6879;DHT22;3478;51.462;7.338;2023-12-22T06:52:40;4.90;99.90
6879;DHT22;3478;51.462;7.338;2023-12-22T06:57:43;4.90;99.90
6879;DHT22;3478;51.462;7.338;2023-12-22T07:02:45;4.90;99.90
6879;DHT22;3478;51.462;7.338;2023-12-22T07:07:48;5.00;99.90
6879;DHT22;3478;51.462;7.338;2023-12-22T07:12:52;5.00;99.90
6879;DHT22;3478;51.462;7.338;2023-12-22T07:17:54;5.00;99.90
6879;DHT22;3478;51.462;7.338;2023-12-22T07:22:56;5.10;99.90
6879;DHT22;3478;51.462;7.338;2023-12-22T07:27:59;5.20;99.90
6879;DHT22;3478;51.462;7.338;2023-12-22T07:33:01;5.20;99.90
6879;DHT22;3478;51.462;7.338;2023-12-22T07:38:03;5.20;99.90
6879;DHT22;3478;51.462;7.338;2023-12-22T07:43:06;5.20;99.90
6879;DHT22;3478;51.462;7.338;2023-12-22T07:48:09;5.30;99.90
6879;DHT22;3478;51.462;7.338;2023-12-22T07:53:11;5.30;99.90
6879;DHT22;3478;51.462;7.338;2023-12-22T07:58:14;5.50;99.90
6879;DHT22;3478;51.462;7.338;2023-12-22T08:03:17;5.50;99.90
6879;DHT22;3478;51.462;7.338;2023-12-22T08:08:20;5.60;34.90
6879;DHT22;3478;51.462;7.338;2023-12-22T08:13:23;5.70;1.00
6879;DHT22;3478;51.462;7.338;2023-12-22T08:18:25;5.90;1.00
6879;DHT22;3478;51.462;7.338;2023-12-22T08:23:26;6.00;1.00
6879;DHT22;3478;51.462;7.338;2023-12-22T08:28:30;6.20;1.00
6879;DHT22;3478;51.462;7.338;2023-12-22T08:33:32;6.30;1.00
6879;DHT22;3478;51.462;7.338;2023-12-22T08:38:34;6.50;1.00
6879;DHT22;3478;51.462;7.338;2023-12-22T08:43:38;6.60;1.00
6879;DHT22;3478;51.462;7.338;2023-12-22T08:48:40;6.80;99.90
6879;DHT22;3478;51.462;7.338;2023-12-22T08:53:42;6.80;99.90
6879;DHT22;3478;51.462;7.338;2023-12-22T08:58:45;6.90;99.90
6879;DHT22;3478;51.462;7.338;2023-12-22T09:03:47;6.90;1.00
6879;DHT22;3478;51.462;7.338;2023-12-22T09:08:49;7.00;1.00
6879;DHT22;3478;51.462;7.338;2023-12-22T09:13:52;7.10;99.90
6879;DHT22;3478;51.462;7.338;2023-12-22T09:18:54;7.10;1.00
6879;DHT22;3478;51.462;7.338;2023-12-22T09:23:56;7.20;82.90
6879;DHT22;3478;51.462;7.338;2023-12-22T09:28:59;7.20;1.00
6879;DHT22;3478;51.462;7.338;2023-12-22T09:34:01;7.20;85.80
6879;DHT22;3478;51.462;7.338;2023-12-22T09:39:03;7.10;1.00
6879;DHT22;3478;51.462;7.338;2023-12-22T09:44:06;7.00;1.00
6879;DHT22;3478;51.462;7.338;2023-12-22T09:49:08;6.80;1.00
6879;DHT22;3478;51.462;7.338;2023-12-22T09:54:11;6.70;1.00
6879;DHT22;3478;51.462;7.338;2023-12-22T09:59:15;6.60;1.00
6879;DHT22;3478;51.462;7.338;2023-12-22T10:04:19;6.50;99.90
6879;DHT22;3478;51.462;7.338;2023-12-22T10:09:21;6.40;99.90
6879;DHT22;3478;51.462;7.338;2023-12-22T10:14:24;6.30;99.90
6879;DHT22;3478;51.462;7.338;2023-12-22T10:19:27;6.30;99.90
6879;DHT22;3478;51.462;7.338;2023-12-22T10:24:39;6.30;99.90
6879;DHT22;3478;51.462;7.338;2023-12-22T10:29:44;6.30;99.90
6879;DHT22;3478;51.462;7.338;2023-12-22T10:34:45;6.30;99.90
6879;DHT22;3478;51.462;7.338;2023-12-22T10:39:47;6.40;99.90
6879;DHT22;3478;51.462;7.338;2023-12-22T10:44:51;6.30;99.90
6879;DHT22;3478;51.462;7.338;2023-12-22T10:49:53;6.40;99.90
6879;DHT22;3478;51.462;7.338;2023-12-22T10:54:57;6.40;99.90
6879;DHT22;3478;51.462;7.338;2023-12-22T11:00:00;6.40;99.90
6879;DHT22;3478;51.462;7.338;2023-12-22T11:05:04;6.50;99.90
6879;DHT22;3478;51.462;7.338;2023-12-22T11:10:07;6.60;99.90
6879;DHT22;3478;51.462;7.338;2023-12-22T11:15:11;6.70;99.90
6879;DHT22;3478;51.462;7.338;2023-12-22T11:20:13;6.80;99.90
6879;DHT22;3478;51.462;7.338;2023-12-22T11:25:16;6.80;99.90
6879;DHT22;3478;51.462;7.338;2023-12-22T11:30:20;6.80;99.90
6879;DHT22;3478;51.462;7.338;2023-12-22T11:35:23;6.80;99.90
6879;DHT22;3478;51.462;7.338;2023-12-22T11:40:25;6.80;99.90
6879;DHT22;3478;51.462;7.338;2023-12-22T11:45:32;6.80;99.90
6879;DHT22;3478;51.462;7.338;2023-12-22T11:50:35;6.90;99.90
6879;DHT22;3478;51.462;7.338;2023-12-22T11:55:57;6.90;99.90
6879;DHT22;3478;51.462;7.338;2023-12-22T12:01:01;6.90;99.90
6879;DHT22;3478;51.462;7.338;2023-12-22T12:06:17;6.90;99.90
6879;DHT22;3478;51.462;7.338;2023-12-22T12:11:23;6.90;99.90
6879;DHT22;3478;51.462;7.338;2023-12-22T12:16:28;6.90;99.90
6879;DHT22;3478;51.462;7.338;2023-12-22T12:21:31;6.90;99.90
6879;DHT22;3478;51.462;7.338;2023-12-22T12:26:33;6.90;99.90
6879;DHT22;3478;51.462;7.338;2023-12-22T12:31:37;6.90;99.90
6879;DHT22;3478;51.462;7.338;2023-12-22T12:36:39;7.00;99.90
6879;DHT22;3478;51.462;7.338;2023-12-22T12:41:42;7.00;99.90
6879;DHT22;3478;51.462;7.338;2023-12-22T12:46:47;7.10;99.90
6879;DHT22;3478;51.462;7.338;2023-12-22T12:51:49;7.20;99.90
6879;DHT22;3478;51.462;7.338;2023-12-22T12:56:51;7.30;99.90
6879;DHT22;3478;51.462;7.338;2023-12-22T13:01:55;7.40;99.90
6879;DHT22;3478;51.462;7.338;2023-12-22T13:06:57;7.60;99.90
6879;DHT22;3478;51.462;7.338;2023-12-22T13:11:59;7.70;99.90
6879;DHT22;3478;51.462;7.338;2023-12-22T13:17:03;7.90;99.90
6879;DHT22;3478;51.462;7.338;2023-12-22T13:22:06;7.90;99.90
6879;DHT22;3478;51.462;7.338;2023-12-22T13:27:08;8.00;99.90
6879;DHT22;3478;51.462;7.338;2023-12-22T13:32:20;7.90;99.90
6879;DHT22;3478;51.462;7.338;2023-12-22T13:37:24;7.90;99.90
6879;DHT22;3478;51.462;7.338;2023-12-22T13:42:31;7.90;99.90
6879;DHT22;3478;51.462;7.338;2023-12-22T13:47:34;7.90;99.90
6879;DHT22;3478;51.462;7.338;2023-12-22T13:52:36;8.00;99.90
6879;DHT22;3478;51.462;7.338;2023-12-22T13:57:38;8.00;99.90
6879;DHT22;3478;51.462;7.338;2023-12-22T14:02:41;8.10;99.90
6879;DHT22;3478;51.462;7.338;2023-12-22T14:07:43;8.10;99.90
6879;DHT22;3478;51.462;7.338;2023-12-22T14:12:45;8.10;99.90
6879;DHT22;3478;51.462;7.338;2023-12-22T14:17:48;8.20;99.90
6879;DHT22;3478;51.462;7.338;2023-12-22T14:22:50;8.30;99.90
6879;DHT22;3478;51.462;7.338;2023-12-22T14:27:52;8.40;99.90
6879;DHT22;3478;51.462;7.338;2023-12-22T14:32:59;8.40;99.90
6879;DHT22;3478;51.462;7.338;2023-12-22T14:38:00;8.50;99.90
6879;DHT22;3478;51.462;7.338;2023-12-22T14:43:02;8.60;99.90
6879;DHT22;3478;51.462;7.338;2023-12-22T14:48:06;8.60;99.90
6879;DHT22;3478;51.462;7.338;2023-12-22T14:53:08;8.60;99.90
6879;DHT22;3478;51.462;7.338;2023-12-22T14:58:10;8.70;99.90
6879;DHT22;3478;51.462;7.338;2023-12-22T15:03:14;8.70;99.90
6879;DHT22;3478;51.462;7.338;2023-12-22T15:08:16;8.70;99.90
6879;DHT22;3478;51.462;7.338;2023-12-22T15:13:18;8.60;99.90
6879;DHT22;3478;51.462;7.338;2023-12-22T15:18:21;8.30;99.90
6879;DHT22;3478;51.462;7.338;2023-12-22T15:23:23;8.20;99.90
6879;DHT22;3478;51.462;7.338;2023-12-22T15:28:24;8.20;99.90
6879;DHT22;3478;51.462;7.338;2023-12-22T15:33:28;8.20;99.90
6879;DHT22;3478;51.462;7.338;2023-12-22T15:38:29;8.20;99.90
6879;DHT22;3478;51.462;7.338;2023-12-22T15:43:31;8.20;99.90
6879;DHT22;3478;51.462;7.338;2023-12-22T15:48:35;8.10;99.90
6879;DHT22;3478;51.462;7.338;2023-12-22T15:53:37;8.10;99.90
6879;DHT22;3478;51.462;7.338;2023-12-22T15:58:39;7.90;99.90
6879;DHT22;3478;51.462;7.338;2023-12-22T16:03:43;7.90;99.90
6879;DHT22;3478;51.462;7.338;2023-12-22T16:08:48;8.00;99.90
6879;DHT22;3478;51.462;7.338;2023-12-22T16:13:49;8.00;99.90
6879;DHT22;3478;51.462;7.338;2023-12-22T16:18:53;8.00;99.90
6879;DHT22;3478;51.462;7.338;2023-12-22T16:23:55;8.10;99.90
6879;DHT22;3478;51.462;7.338;2023-12-22T16:28:57;8.10;99.90
6879;DHT22;3478;51.462;7.338;2023-12-22T16:34:00;8.20;99.90
6879;DHT22;3478;51.462;7.338;2023-12-22T16:39:03;8.20;99.90
6879;DHT22;3478;51.462;7.338;2023-12-22T16:44:05;8.20;99.90
6879;DHT22;3478;51.462;7.338;2023-12-22T16:49:08;8.10;99.90
6879;DHT22;3478;51.462;7.338;2023-12-22T16:54:10;8.10;99.90
6879;DHT22;3478;51.462;7.338;2023-12-22T16:59:12;8.10;99.90
6879;DHT22;3478;51.462;7.338;2023-12-22T17:04:15;8.20;99.90
6879;DHT22;3478;51.462;7.338;2023-12-22T17:09:17;8.30;99.90
6879;DHT22;3478;51.462;7.338;2023-12-22T17:14:19;8.30;99.90
6879;DHT22;3478;51.462;7.338;2023-12-22T17:19:22;8.30;99.90
6879;DHT22;3478;51.462;7.338;2023-12-22T17:24:24;8.40;99.90
6879;DHT22;3478;51.462;7.338;2023-12-22T17:29:26;8.40;99.90
6879;DHT22;3478;51.462;7.338;2023-12-22T17:34:29;8.40;99.90
6879;DHT22;3478;51.462;7.338;2023-12-22T17:39:31;8.40;99.90
6879;DHT22;3478;51.462;7.338;2023-12-22T17:44:34;8.40;99.90
6879;DHT22;3478;51.462;7.338;2023-12-22T17:49:37;8.40;99.90
6879;DHT22;3478;51.462;7.338;2023-12-22T17:54:39;7.70;99.90
6879;DHT22;3478;51.462;7.338;2023-12-22T17:59:41;7.60;99.90
6879;DHT22;3478;51.462;7.338;2023-12-22T18:04:45;7.40;99.90
6879;DHT22;3478;51.462;7.338;2023-12-22T18:09:46;7.20;99.90
6879;DHT22;3478;51.462;7.338;2023-12-22T18:14:48;7.10;99.90
6879;DHT22;3478;51.462;7.338;2023-12-22T18:19:51;7.10;99.90
6879;DHT22;3478;51.462;7.338;2023-12-22T18:24:53;7.00;99.90
6879;DHT22;3478;51.462;7.338;2023-12-22T18:29:55;7.00;99.90
6879;DHT22;3478;51.462;7.338;2023-12-22T18:34:58;7.00;99.90
6879;DHT22;3478;51.462;7.338;2023-12-22T18:40:00;7.00;99.90
6879;DHT22;3478;51.462;7.338;2023-12-22T18:45:02;6.90;99.90
6879;DHT22;3478;51.462;7.338;2023-12-22T18:50:06;6.90;99.90
6879;DHT22;3478;51.462;7.338;2023-12-22T18:55:09;6.90;99.90
6879;DHT22;3478;51.462;7.338;2023-12-22T19:00:12;7.00;99.90
6879;DHT22;3478;51.462;7.338;2023-12-22T19:05:16;7.00;99.90
6879;DHT22;3478;51.462;7.338;2023-12-22T19:10:17;7.00;99.90
6879;DHT22;3478;51.462;7.338;2023-12-22T19:15:19;7.00;99.90
6879;DHT22;3478;51.462;7.338;2023-12-22T19:20:24;7.00;99.90
6879;DHT22;3478;51.462;7.338;2023-12-22T19:25:27;7.00;99.90
6879;DHT22;3478;51.462;7.338;2023-12-22T19:30:29;7.00;99.90
6879;DHT22;3478;51.462;7.338;2023-12-22T19:35:32;7.00;99.90
6879;DHT22;3478;51.462;7.338;2023-12-22T19:40:34;7.00;99.90
6879;DHT22;3478;51.462;7.338;2023-12-22T19:45:36;7.00;99.90
6879;DHT22;3478;51.462;7.338;2023-12-22T19:50:39;7.00;99.90
6879;DHT22;3478;51.462;7.338;2023-12-22T19:55:43;7.10;99.90
6879;DHT22;3478;51.462;7.338;2023-12-22T20:00:44;7.00;99.90
6879;DHT22;3478;51.462;7.338;2023-12-22T20:05:48;7.00;99.90
6879;DHT22;3478;51.462;7.338;2023-12-22T20:10:50;7.00;99.90
6879;DHT22;3478;51.462;7.338;2023-12-22T20:15:52;7.00;99.90
6879;DHT22;3478;51.462;7.338;2023-12-22T20:20:56;7.00;99.90
6879;DHT22;3478;51.462;7.338;2023-12-22T20:25:58;7.00;99.90
6879;DHT22;3478;51.462;7.338;2023-12-22T20:31:00;7.00;99.90
6879;DHT22;3478;51.462;7.338;2023-12-22T20:36:04;6.90;99.90
6879;DHT22;3478;51.462;7.338;2023-12-22T20:41:07;6.90;99.90
6879;DHT22;3478;51.462;7.338;2023-12-22T20:46:08;6.80;99.90
6879;DHT22;3478;51.462;7.338;2023-12-22T20:51:12;6.80;99.90
6879;DHT22;3478;51.462;7.338;2023-12-22T20:56:17;6.80;99.90
6879;DHT22;3478;51.462;7.338;2023-12-22T21:01:19;6.80;99.90
6879;DHT22;3478;51.462;7.338;2023-12-22T21:06:22;6.80;99.90
6879;DHT22;3478;51.462;7.338;2023-12-22T21:11:24;6.70;99.90
6879;DHT22;3478;51.462;7.338;2023-12-22T21:16:26;6.70;99.90
6879;DHT22;3478;51.462;7.338;2023-12-22T21:21:29;6.60;99.90
6879;DHT22;3478;51.462;7.338;2023-12-22T21:26:31;6.60;99.90
6879;DHT22;3478;51.462;7.338;2023-12-22T21:31:33;6.60;99.90
6879;DHT22;3478;51.462;7.338;2023-12-22T21:36:36;6.50;99.90
6879;DHT22;3478;51.462;7.338;2023-12-22T21:41:38;6.60;99.90
6879;DHT22;3478;51.462;7.338;2023-12-22T21:46:42;6.60;99.90
6879;DHT22;3478;51.462;7.338;2023-12-22T21:51:46;6.50;99.90
6879;DHT22;3478;51.462;7.338;2023-12-22T21:56:47;6.50;99.90
6879;DHT22;3478;51.462;7.338;2023-12-22T22:01:49;6.60;99.90
6879;DHT22;3478;51.462;7.338;2023-12-22T22:06:53;6.60;99.90
6879;DHT22;3478;51.462;7.338;2023-12-22T22:11:56;6.60;99.90
6879;DHT22;3478;51.462;7.338;2023-12-22T22:16:58;6.60;99.90
6879;DHT22;3478;51.462;7.338;2023-12-22T22:22:01;6.60;99.90
6879;DHT22;3478;51.462;7.338;2023-12-22T22:27:04;6.60;99.90
6879;DHT22;3478;51.462;7.338;2023-12-22T22:32:06;6.60;99.90
6879;DHT22;3478;51.462;7.338;2023-12-22T22:37:09;6.60;99.90
6879;DHT22;3478;51.462;7.338;2023-12-22T22:42:11;6.60;99.90
6879;DHT22;3478;51.462;7.338;2023-12-22T22:47:13;6.60;99.90
6879;DHT22;3478;51.462;7.338;2023-12-22T22:52:16;6.60;99.90
6879;DHT22;3478;51.462;7.338;2023-12-22T22:57:18;6.60;99.90
6879;DHT22;3478;51.462;7.338;2023-12-22T23:02:20;6.60;99.90
6879;DHT22;3478;51.462;7.338;2023-12-22T23:07:23;6.60;99.90
6879;DHT22;3478;51.462;7.338;2023-12-22T23:12:25;6.60;99.90
6879;DHT22;3478;51.462;7.338;2023-12-22T23:17:26;6.60;99.90
6879;DHT22;3478;51.462;7.338;2023-12-22T23:22:32;6.60;99.90
6879;DHT22;3478;51.462;7.338;2023-12-22T23:27:34;6.60;99.90
6879;DHT22;3478;51.462;7.338;2023-12-22T23:32:35;6.60;99.90
6879;DHT22;3478;51.462;7.338;2023-12-22T23:37:39;6.60;99.90
6879;DHT22;3478;51.462;7.338;2023-12-22T23:42:40;6.60;99.90
6879;DHT22;3478;51.462;7.338;2023-12-22T23:47:42;6.60;99.90
6879;DHT22;3478;51.462;7.338;2023-12-22T23:52:45;6.60;99.90
6879;DHT22;3478;51.462;7.338;2023-12-22T23:57:47;6.50;99.90
